createdAt,value
2019-04-26T00:00:56.159Z,0.60
2019-04-26T00:02:12.318Z,0.40
2019-04-26T00:03:24.523Z,0.80
2019-04-26T00:04:32.104Z,0.63
2019-04-26T00:05:39.451Z,0.70
2019-04-26T00:06:48.596Z,0.60
2019-04-26T00:07:55.896Z,0.60
2019-04-26T00:09:19.464Z,0.57
2019-04-26T00:10:34.243Z,0.60
2019-04-26T00:11:59.656Z,0.57
2019-04-26T00:13:14.666Z,0.47
2019-04-26T00:14:47.410Z,0.60
2019-04-26T00:16:04.557Z,0.60
2019-04-26T00:17:15.504Z,0.53
2019-04-26T00:18:23.071Z,0.60
2019-04-26T00:19:30.493Z,0.53
2019-04-26T00:20:38.016Z,0.63
2019-04-26T00:21:45.392Z,0.80
2019-04-26T00:22:53.144Z,0.80
2019-04-26T00:24:00.338Z,0.70
2019-04-26T00:25:08.363Z,0.67
2019-04-26T00:26:37.608Z,0.50
2019-04-26T00:27:44.825Z,0.80
2019-04-26T00:28:52.149Z,0.60
2019-04-26T00:29:59.439Z,0.67
2019-04-26T00:31:06.720Z,0.60
2019-04-26T00:32:14.870Z,0.60
2019-04-26T00:33:22.646Z,0.50
2019-04-26T00:34:30.948Z,0.53
2019-04-26T00:35:47.473Z,0.40
2019-04-26T00:36:47.109Z,0.57
2019-04-26T00:37:54.336Z,0.60
2019-04-26T00:39:01.577Z,0.60
2019-04-26T00:40:11.838Z,0.40
2019-04-26T00:41:20.626Z,0.53
2019-04-26T00:42:28.865Z,0.70
2019-04-26T00:43:36.690Z,0.40
2019-04-26T00:44:44.711Z,0.60
2019-04-26T00:45:54.622Z,0.50
2019-04-26T00:47:05.342Z,0.53
2019-04-26T00:48:16.804Z,0.40
2019-04-26T00:49:24.684Z,0.60
2019-04-26T00:50:45.772Z,0.50
2019-04-26T00:51:53.781Z,0.43
2019-04-26T00:53:04.051Z,0.50
2019-04-26T00:54:12.055Z,0.50
2019-04-26T00:55:21.786Z,0.40
2019-04-26T00:56:30.107Z,0.60
2019-04-26T00:57:38.115Z,0.60
2019-04-26T00:58:45.938Z,0.50
2019-04-26T00:59:53.780Z,0.70
2019-04-26T01:01:01.800Z,0.43
2019-04-26T01:02:18.633Z,0.60
2019-04-26T01:03:25.871Z,0.33
2019-04-26T01:04:33.062Z,0.40
2019-04-26T01:05:40.939Z,0.50
2019-04-26T01:06:49.899Z,0.40
2019-04-26T01:07:57.499Z,0.60
2019-04-26T01:09:06.991Z,0.60
2019-04-26T01:10:16.640Z,0.50
2019-04-26T01:11:25.958Z,0.57
2019-04-26T01:12:33.635Z,0.40
2019-04-26T01:13:40.859Z,0.50
2019-04-26T01:14:48.086Z,0.40
2019-04-26T01:15:55.282Z,0.53
2019-04-26T01:17:02.528Z,0.50
2019-04-26T01:18:09.731Z,0.50
2019-04-26T01:19:18.776Z,0.33
2019-04-26T01:20:30.514Z,0.40
2019-04-26T01:21:46.056Z,0.40
2019-04-26T01:22:57.675Z,0.40
2019-04-26T01:24:07.478Z,0.50
2019-04-26T01:26:14.941Z,0.70
2019-04-26T01:27:27.684Z,0.50
2019-04-26T01:28:54.429Z,0.60
2019-04-26T01:30:07.985Z,0.50
2019-04-26T01:31:18.507Z,0.47
2019-04-26T01:32:28.263Z,0.43
2019-04-26T01:33:38.438Z,0.50
2019-04-26T01:34:49.550Z,0.53
2019-04-26T01:35:57.165Z,0.63
2019-04-26T01:37:05.637Z,0.60
2019-04-26T01:38:16.960Z,0.50
2019-04-26T01:39:24.442Z,0.40
2019-04-26T01:40:33.286Z,0.50
2019-04-26T01:41:45.731Z,0.40
2019-04-26T01:43:04.300Z,0.60
2019-04-26T01:44:22.663Z,0.67
2019-04-26T01:45:44.735Z,0.50
2019-04-26T01:46:51.990Z,0.80
2019-04-26T01:48:05.714Z,0.70
2019-04-26T01:49:16.327Z,0.60
2019-04-26T01:50:28.143Z,0.70
2019-04-26T01:51:53.332Z,0.70
2019-04-26T01:53:02.146Z,0.83
2019-04-26T01:54:13.856Z,0.50
2019-04-26T01:55:22.959Z,0.67
2019-04-26T01:56:36.212Z,0.80
2019-04-26T01:57:44.340Z,0.60
2019-04-26T01:58:52.215Z,0.80
2019-04-26T02:00:06.563Z,0.90
2019-04-26T02:01:22.716Z,0.70
2019-04-26T02:02:55.608Z,0.70
2019-04-26T02:04:02.847Z,0.90
2019-04-26T02:05:15.550Z,0.70
2019-04-26T02:06:28.804Z,0.70
2019-04-26T02:07:39.542Z,0.63
2019-04-26T02:08:46.967Z,0.87
2019-04-26T02:09:54.432Z,0.80
2019-04-26T02:11:01.778Z,0.90
2019-04-26T02:12:09.390Z,0.90
2019-04-26T02:13:17.140Z,0.80
2019-04-26T02:14:25.287Z,0.83
2019-04-26T02:15:34.968Z,0.93
2019-04-26T02:16:42.623Z,0.70
2019-04-26T02:17:53.441Z,0.80
2019-04-26T02:19:00.800Z,0.83
2019-04-26T02:20:08.985Z,0.90
2019-04-26T02:21:45.079Z,0.90
2019-04-26T02:23:02.390Z,0.50
2019-04-26T02:24:17.942Z,0.70
2019-04-26T02:25:25.969Z,0.80
2019-04-26T02:26:34.839Z,0.70
2019-04-26T02:27:44.654Z,0.67
2019-04-26T02:28:52.344Z,0.80
2019-04-26T02:30:01.573Z,0.80
2019-04-26T02:31:08.901Z,0.80
2019-04-26T02:32:18.193Z,0.60
2019-04-26T02:33:27.447Z,0.67
2019-04-26T02:34:37.999Z,0.77
2019-04-26T02:35:46.245Z,0.87
2019-04-26T02:36:59.134Z,0.70
2019-04-26T02:38:06.593Z,0.80
2019-04-26T02:39:21.019Z,0.80
2019-04-26T02:40:30.099Z,0.70
2019-04-26T02:41:37.979Z,0.70
2019-04-26T02:42:46.386Z,0.70
2019-04-26T02:43:58.009Z,0.90
2019-04-26T02:46:19.441Z,0.83
2019-04-26T02:47:57.719Z,0.80
2019-04-26T02:49:37.065Z,0.60
2019-04-26T02:50:52.120Z,0.60
2019-04-26T02:52:53.580Z,0.70
2019-04-26T02:54:45.193Z,0.77
2019-04-26T02:56:35.121Z,0.70
2019-04-26T02:57:53.847Z,0.70
2019-04-26T02:59:43.054Z,0.77
2019-04-26T03:00:52.469Z,0.90
2019-04-26T03:02:04.732Z,0.87
2019-04-26T03:03:14.277Z,0.80
2019-04-26T03:04:24.004Z,0.90
2019-04-26T03:05:36.278Z,0.70
2019-04-26T03:07:02.434Z,0.73
2019-04-26T03:08:04.196Z,0.97
2019-04-26T03:09:14.005Z,0.80
2019-04-26T03:10:31.811Z,0.87
2019-04-26T03:11:43.502Z,0.73
2019-04-26T03:12:55.197Z,0.80
2019-04-26T03:14:24.495Z,0.90
2019-04-26T03:15:58.090Z,0.80
2019-04-26T03:17:18.071Z,0.77
2019-04-26T03:18:43.042Z,0.77
2019-04-26T03:20:00.466Z,0.70
2019-04-26T03:21:17.635Z,0.83
2019-04-26T03:22:46.864Z,0.70
2019-04-26T03:24:06.932Z,0.83
2019-04-26T03:25:38.803Z,0.73
2019-04-26T03:27:17.898Z,0.70
2019-04-26T03:29:03.078Z,0.63
2019-04-26T03:30:48.660Z,0.60
2019-04-26T03:32:50.467Z,0.87
2019-04-26T03:34:12.545Z,0.80
2019-04-26T03:36:00.427Z,1.00
2019-04-26T03:37:53.019Z,0.93
2019-04-26T03:39:30.668Z,0.70
2019-04-26T03:40:59.573Z,0.63
2019-04-26T03:43:11.580Z,0.80
2019-04-26T03:44:31.271Z,0.60
2019-04-26T03:46:24.268Z,1.00
2019-04-26T03:48:09.841Z,0.90
2019-04-26T03:50:19.166Z,0.93
2019-04-26T03:51:56.961Z,0.77
2019-04-26T03:53:47.262Z,1.00
2019-04-26T03:54:59.436Z,0.73
2019-04-26T03:57:14.797Z,0.83
2019-04-26T03:58:36.628Z,0.80
2019-04-26T04:00:11.862Z,0.80
2019-04-26T04:01:20.585Z,0.77
2019-04-26T04:02:58.899Z,0.90
2019-04-26T04:04:26.676Z,0.90
2019-04-26T04:05:46.037Z,0.90
2019-04-26T04:07:03.784Z,0.83
2019-04-26T04:08:09.797Z,0.93
2019-04-26T04:09:18.093Z,0.97
2019-04-26T04:10:31.654Z,1.17
2019-04-26T04:12:10.289Z,1.10
2019-04-26T04:13:59.580Z,0.93
2019-04-26T04:15:17.165Z,0.80
2019-04-26T04:16:50.501Z,1.00
2019-04-26T04:18:09.204Z,0.87
2019-04-26T04:20:07.030Z,1.30
2019-04-26T04:21:48.362Z,1.10
2019-04-26T04:23:09.229Z,1.10
2019-04-26T04:24:30.873Z,1.10
2019-04-26T04:25:45.873Z,1.10
2019-04-26T04:27:21.358Z,1.13
2019-04-26T04:29:56.091Z,1.20
2019-04-26T04:34:03.791Z,0.93
2019-04-26T04:35:14.003Z,1.20
2019-04-26T04:36:42.342Z,1.30
2019-04-26T04:38:09.099Z,1.03
2019-04-26T04:39:46.383Z,1.13
2019-04-26T04:41:13.454Z,1.00
2019-04-26T04:42:57.080Z,1.10
2019-04-26T04:44:39.459Z,1.53
2019-04-26T04:46:14.312Z,1.03
2019-04-26T04:47:46.066Z,1.10
2019-04-26T04:49:35.309Z,1.30
2019-04-26T04:50:52.523Z,1.30
2019-04-26T04:52:31.603Z,1.50
2019-04-26T04:54:13.321Z,1.23
2019-04-26T04:55:52.983Z,1.40
2019-04-26T04:57:39.587Z,1.70
2019-04-26T04:58:54.315Z,1.43
2019-04-26T05:00:15.461Z,1.40
2019-04-26T05:02:35.951Z,1.97
2019-04-26T05:04:00.904Z,1.70
2019-04-26T05:06:07.532Z,2.07
2019-04-26T05:08:07.103Z,1.47
2019-04-26T05:09:29.922Z,1.90
2019-04-26T05:11:02.622Z,1.90
2019-04-26T05:12:44.469Z,1.87
2019-04-26T05:14:10.303Z,1.70
2019-04-26T05:16:14.698Z,1.83
2019-04-26T05:18:07.446Z,1.80
2019-04-26T05:19:57.146Z,1.63
2019-04-26T05:21:42.372Z,1.80
2019-04-26T05:23:44.627Z,1.87
2019-04-26T05:26:18.823Z,1.60
2019-04-26T05:28:08.207Z,1.73
2019-04-26T05:30:17.679Z,1.67
2019-04-26T05:31:45.898Z,1.70
2019-04-26T05:34:05.536Z,1.93
2019-04-26T05:35:41.716Z,1.63
2019-04-26T05:37:55.225Z,1.77
2019-04-26T05:39:31.734Z,1.10
2019-04-26T05:41:36.690Z,1.57
2019-04-26T05:43:37.684Z,1.47
2019-04-26T05:45:27.773Z,1.47
2019-04-26T05:47:19.016Z,1.53
2019-04-26T05:49:28.420Z,1.40
2019-04-26T05:52:04.981Z,1.30
2019-04-26T05:54:39.250Z,1.40
2019-04-26T05:56:39.449Z,1.30
2019-04-26T05:58:46.640Z,1.50
2019-04-26T06:00:50.573Z,1.20
2019-04-26T06:02:59.010Z,1.20
2019-04-26T06:04:38.629Z,1.30
2019-04-26T06:06:35.034Z,1.20
2019-04-26T06:08:33.791Z,1.10
2019-04-26T06:10:28.499Z,1.13
2019-04-26T06:11:48.658Z,1.10
2019-04-26T06:14:00.710Z,0.80
2019-04-26T06:15:39.322Z,1.17
2019-04-26T06:17:53.503Z,1.10
2019-04-26T06:19:22.648Z,0.87
2019-04-26T06:21:04.861Z,1.50
2019-04-26T06:22:41.720Z,1.33
2019-04-26T06:24:22.342Z,1.20
2019-04-26T06:26:30.744Z,1.27
2019-04-26T06:28:04.418Z,1.20
2019-04-26T06:29:20.271Z,1.50
2019-04-26T06:31:01.808Z,1.50
2019-04-26T06:32:25.642Z,0.90
2019-04-26T06:33:43.796Z,1.50
2019-04-26T06:35:20.008Z,1.40
2019-04-26T06:36:36.932Z,1.00
2019-04-26T06:38:47.714Z,1.13
2019-04-26T06:40:12.921Z,1.20
2019-04-26T06:42:05.151Z,1.37
2019-04-26T06:43:26.496Z,1.27
2019-04-26T06:45:45.212Z,1.07
2019-04-26T06:47:08.233Z,1.03
2019-04-26T06:48:35.142Z,1.10
2019-04-26T06:50:19.395Z,1.50
2019-04-26T06:51:36.596Z,1.40
2019-04-26T06:53:15.511Z,1.67
2019-04-26T06:54:37.211Z,1.10
2019-04-26T06:56:09.355Z,1.90
2019-04-26T06:58:05.504Z,1.80
2019-04-26T06:59:51.931Z,1.80
2019-04-26T07:01:19.265Z,1.87
2019-04-26T07:02:39.133Z,1.57
2019-04-26T07:04:24.941Z,1.63
2019-04-26T07:05:38.007Z,1.70
2019-04-26T07:07:04.608Z,1.60
2019-04-26T07:08:39.642Z,1.37
2019-04-26T07:10:30.181Z,1.47
2019-04-26T07:12:34.670Z,1.27
2019-04-26T07:14:45.030Z,1.90
2019-04-26T07:16:29.790Z,1.90
2019-04-26T07:18:22.270Z,1.70
2019-04-26T07:20:33.463Z,1.80
2019-04-26T07:22:35.511Z,1.77
2019-04-26T07:25:09.100Z,1.60
2019-04-26T07:26:54.721Z,1.57
2019-04-26T07:28:22.441Z,2.00
2019-04-26T07:30:07.594Z,2.30
2019-04-26T07:31:48.551Z,1.77
2019-04-26T07:33:45.422Z,1.73
2019-04-26T07:35:31.459Z,1.57
2019-04-26T07:37:38.987Z,1.60
2019-04-26T07:39:35.177Z,1.80
2019-04-26T07:41:34.952Z,1.67
2019-04-26T07:43:29.660Z,1.80
2019-04-26T07:45:17.393Z,1.57
2019-04-26T07:47:24.574Z,1.77
2019-04-26T07:49:19.066Z,1.80
2019-04-26T07:51:19.326Z,1.80
2019-04-26T07:53:04.605Z,1.67
2019-04-26T07:55:04.978Z,2.03
2019-04-26T07:57:04.589Z,1.67
2019-04-26T07:59:30.004Z,1.60
2019-04-26T08:00:52.329Z,2.10
2019-04-26T08:02:40.909Z,1.73
2019-04-26T08:04:03.788Z,2.00
2019-04-26T08:05:26.005Z,1.90
2019-04-26T08:06:52.209Z,1.73
2019-04-26T08:08:06.902Z,1.87
2019-04-26T08:09:26.536Z,1.80
2019-04-26T08:10:28.024Z,2.10
2019-04-26T08:11:44.700Z,1.80
2019-04-26T08:13:06.087Z,1.73
2019-04-26T08:14:39.446Z,2.10
2019-04-26T08:16:13.209Z,1.80
2019-04-26T08:17:55.932Z,1.60
2019-04-26T08:19:08.551Z,1.87
2019-04-26T08:20:34.658Z,1.77
2019-04-26T08:21:48.112Z,1.50
2019-04-26T08:23:08.987Z,1.60
2019-04-26T08:24:21.574Z,1.90
2019-04-26T08:25:33.895Z,1.70
2019-04-26T08:26:44.963Z,1.67
2019-04-26T08:27:55.623Z,2.07
2019-04-26T08:29:07.037Z,1.80
2019-04-26T08:30:19.073Z,2.07
2019-04-26T08:31:29.873Z,1.77
2019-04-26T08:32:47.256Z,1.50
2019-04-26T08:34:02.061Z,2.03
2019-04-26T08:35:23.374Z,1.80
2019-04-26T08:36:38.550Z,1.43
2019-04-26T08:37:54.269Z,1.90
2019-04-26T08:39:04.645Z,2.20
2019-04-26T08:40:23.092Z,1.77
2019-04-26T08:41:26.069Z,1.80
2019-04-26T08:42:43.363Z,1.80
2019-04-26T08:44:07.207Z,1.83
2019-04-26T08:45:25.912Z,1.90
2019-04-26T08:46:47.438Z,2.20
2019-04-26T08:48:12.680Z,1.80
2019-04-26T08:49:44.214Z,1.97
2019-04-26T08:50:52.231Z,1.50
2019-04-26T08:52:13.924Z,1.73
2019-04-26T08:53:14.274Z,1.80
2019-04-26T08:54:26.465Z,1.60
2019-04-26T08:55:37.022Z,2.00
2019-04-26T08:56:49.185Z,1.80
2019-04-26T08:58:01.495Z,2.00
2019-04-26T08:59:20.137Z,1.83
2019-04-26T09:00:41.257Z,2.00
2019-04-26T09:01:58.475Z,2.03
2019-04-26T09:03:18.923Z,2.00
2019-04-26T09:04:34.292Z,1.90
2019-04-26T09:06:07.928Z,1.70
2019-04-26T09:07:22.302Z,1.80
2019-04-26T09:08:39.358Z,2.37
2019-04-26T09:09:57.064Z,1.80
2019-04-26T09:11:02.972Z,1.70
2019-04-26T09:12:22.830Z,1.73
2019-04-26T09:13:30.269Z,2.40
2019-04-26T09:14:42.265Z,1.87
2019-04-26T09:16:18.343Z,1.73
2019-04-26T09:17:27.827Z,2.10
2019-04-26T09:18:43.212Z,1.93
2019-04-26T09:19:43.622Z,2.10
2019-04-26T09:20:50.844Z,2.07
2019-04-26T09:22:12.792Z,1.90
2019-04-26T09:23:39.533Z,1.87
2019-04-26T09:24:48.139Z,2.10
2019-04-26T09:25:59.414Z,2.10
2019-04-26T09:27:11.683Z,2.07
2019-04-26T09:28:28.793Z,2.00
2019-04-26T09:29:54.896Z,1.83
2019-04-26T09:31:21.161Z,2.23
2019-04-26T09:32:47.330Z,2.10
2019-04-26T09:33:59.236Z,2.47
2019-04-26T09:35:06.918Z,2.17
2019-04-26T09:36:14.245Z,2.30
2019-04-26T09:37:22.309Z,2.07
2019-04-26T09:38:29.541Z,1.80
2019-04-26T09:39:36.762Z,1.80
2019-04-26T09:40:45.458Z,1.97
2019-04-26T09:41:54.443Z,1.87
2019-04-26T09:43:10.509Z,2.07
2019-04-26T09:44:33.063Z,2.07
2019-04-26T09:45:48.152Z,2.17
2019-04-26T09:47:19.589Z,2.30
2019-04-26T09:48:37.316Z,2.10
2019-04-26T09:50:03.661Z,2.10
2019-04-26T09:51:10.972Z,2.40
2019-04-26T09:52:23.849Z,2.00
2019-04-26T09:53:31.138Z,2.10
2019-04-26T09:54:38.455Z,2.10
2019-04-26T09:55:45.680Z,2.33
2019-04-26T09:56:52.925Z,2.23
2019-04-26T09:58:00.145Z,2.10
2019-04-26T09:59:09.161Z,2.60
2019-04-26T10:00:24.201Z,2.10
2019-04-26T10:01:32.702Z,2.20
2019-04-26T10:02:40.278Z,2.30
2019-04-26T10:03:47.501Z,2.70
2019-04-26T10:04:54.803Z,2.20
2019-04-26T10:06:02.135Z,2.20
2019-04-26T10:07:10.185Z,2.70
2019-04-26T10:08:18.559Z,2.33
2019-04-26T10:09:26.557Z,2.37
2019-04-26T10:10:35.235Z,2.50
2019-04-26T10:11:49.561Z,2.43
2019-04-26T10:13:15.088Z,2.30
2019-04-26T10:14:46.398Z,2.77
2019-04-26T10:16:02.491Z,2.40
2019-04-26T10:17:21.143Z,1.70
2019-04-26T10:18:28.551Z,1.97
2019-04-26T10:19:45.888Z,2.00
2019-04-26T10:20:53.147Z,2.10
2019-04-26T10:22:00.354Z,1.83
2019-04-26T10:23:07.910Z,2.03
2019-04-26T10:24:16.551Z,2.07
2019-04-26T10:25:24.063Z,2.03
2019-04-26T10:26:31.298Z,1.90
2019-04-26T10:27:40.775Z,2.20
2019-04-26T10:28:50.605Z,2.30
2019-04-26T10:30:07.815Z,2.20
2019-04-26T10:31:06.323Z,2.00
2019-04-26T10:32:13.783Z,2.37
2019-04-26T10:33:21.002Z,2.10
2019-04-26T10:34:28.394Z,2.07
2019-04-26T10:35:35.678Z,2.33
2019-04-26T10:36:44.133Z,2.40
2019-04-26T10:37:52.678Z,2.27
2019-04-26T10:39:00.135Z,2.10
2019-04-26T10:40:09.337Z,2.40
2019-04-26T10:41:16.956Z,2.10
2019-04-26T10:42:24.241Z,1.70
2019-04-26T10:43:31.450Z,2.50
2019-04-26T10:44:40.172Z,1.70
2019-04-26T10:45:53.590Z,1.70
2019-04-26T10:46:59.910Z,1.77
2019-04-26T10:48:09.729Z,2.10
2019-04-26T10:49:45.327Z,2.40
2019-04-26T10:50:52.540Z,1.90
2019-04-26T10:51:59.770Z,1.90
2019-04-26T10:53:17.762Z,2.13
2019-04-26T10:54:24.976Z,1.90
2019-04-26T10:55:51.527Z,1.83
2019-04-26T10:57:12.265Z,1.87
2019-04-26T10:58:32.047Z,1.80
2019-04-26T10:59:50.889Z,1.63
2019-04-26T11:00:59.164Z,1.60
2019-04-26T11:02:10.772Z,1.40
2019-04-26T11:03:18.024Z,1.53
2019-04-26T11:04:25.890Z,1.90
2019-04-26T11:05:33.352Z,1.70
2019-04-26T11:06:40.607Z,1.50
2019-04-26T11:07:47.920Z,1.80
2019-04-26T11:08:55.131Z,1.53
2019-04-26T11:10:03.023Z,1.50
2019-04-26T11:11:11.053Z,1.63
2019-04-26T11:12:19.557Z,1.30
2019-04-26T11:13:26.750Z,1.40
2019-04-26T11:14:33.961Z,1.50
2019-04-26T11:15:41.174Z,1.43
2019-04-26T11:16:48.381Z,1.20
2019-04-26T11:17:56.120Z,1.40
2019-04-26T11:19:05.012Z,1.40
2019-04-26T11:20:12.540Z,1.40
2019-04-26T11:21:21.012Z,1.10
2019-04-26T11:22:33.146Z,1.40
2019-04-26T11:23:41.207Z,1.07
2019-04-26T11:24:50.108Z,1.20
2019-04-26T11:25:58.053Z,1.30
2019-04-26T11:27:09.690Z,1.03
2019-04-26T11:28:21.068Z,1.17
2019-04-26T11:29:28.799Z,1.10
2019-04-26T11:30:35.336Z,1.20
2019-04-26T11:31:42.533Z,1.40
2019-04-26T11:32:49.742Z,1.30
2019-04-26T11:34:05.182Z,1.00
2019-04-26T11:35:06.062Z,1.00
2019-04-26T11:36:13.324Z,1.00
2019-04-26T11:37:20.572Z,1.07
2019-04-26T11:38:31.169Z,1.13
2019-04-26T11:39:40.583Z,1.03
2019-04-26T11:40:49.842Z,1.00
2019-04-26T11:41:57.095Z,1.50
2019-04-26T11:43:05.058Z,0.73
2019-04-26T11:44:12.285Z,0.97
2019-04-26T11:45:19.657Z,0.90
2019-04-26T11:46:29.251Z,0.80
2019-04-26T11:47:37.179Z,0.90
2019-04-26T11:48:44.725Z,1.30
2019-04-26T11:49:52.251Z,1.00
2019-04-26T11:50:59.522Z,0.80
2019-04-26T11:52:07.878Z,0.77
2019-04-26T11:53:15.097Z,1.10
2019-04-26T11:54:22.337Z,0.80
2019-04-26T11:55:30.138Z,1.03
2019-04-26T11:56:38.875Z,1.00
2019-04-26T11:57:47.640Z,1.00
2019-04-26T11:58:56.846Z,1.20
2019-04-26T12:00:05.483Z,1.00
2019-04-26T12:01:15.791Z,0.80
2019-04-26T12:02:23.057Z,0.93
2019-04-26T12:03:30.304Z,0.93
2019-04-26T12:05:02.435Z,0.80
2019-04-26T12:06:31.773Z,0.87
2019-04-26T12:07:43.800Z,0.80
2019-04-26T12:08:56.959Z,0.70
2019-04-26T12:10:09.234Z,0.70
2019-04-26T12:11:18.550Z,0.90
2019-04-26T12:12:23.808Z,1.10
2019-04-26T12:13:31.144Z,0.97
2019-04-26T12:14:38.406Z,0.80
2019-04-26T12:15:45.626Z,0.80
2019-04-26T12:16:59.164Z,0.80
2019-04-26T12:18:05.695Z,0.73
2019-04-26T12:19:14.282Z,0.90
2019-04-26T12:20:22.450Z,0.73
2019-04-26T12:21:30.503Z,1.00
2019-04-26T12:22:39.402Z,1.03
2019-04-26T12:23:46.825Z,1.17
2019-04-26T12:24:54.050Z,1.10
2019-04-26T12:26:01.275Z,1.00
2019-04-26T12:27:10.381Z,1.13
2019-04-26T12:28:17.452Z,0.97
2019-04-26T12:29:24.984Z,1.17
2019-04-26T12:30:32.240Z,1.10
2019-04-26T12:31:39.645Z,1.00
2019-04-26T12:32:46.917Z,1.30
2019-04-26T12:33:54.201Z,1.17
2019-04-26T12:35:01.441Z,1.20
2019-04-26T12:36:13.427Z,1.20
2019-04-26T12:37:21.099Z,1.20
2019-04-26T12:38:28.644Z,1.00
2019-04-26T12:39:38.315Z,1.30
2019-04-26T12:40:47.603Z,0.87
2019-04-26T12:41:54.937Z,1.10
2019-04-26T12:43:02.148Z,1.10
2019-04-26T12:44:09.933Z,0.93
2019-04-26T12:45:54.649Z,1.33
2019-04-26T12:47:08.029Z,1.10
2019-04-26T12:48:17.471Z,1.30
2019-04-26T12:49:25.412Z,1.03
2019-04-26T12:50:36.426Z,1.00
2019-04-26T12:51:42.780Z,1.07
2019-04-26T12:52:51.440Z,1.20
2019-04-26T12:53:59.534Z,0.97
2019-04-26T12:55:06.950Z,1.10
2019-04-26T12:56:14.339Z,0.83
2019-04-26T12:57:21.570Z,1.03
2019-04-26T12:58:28.808Z,1.20
2019-04-26T12:59:43.891Z,1.03
2019-04-26T13:00:53.930Z,1.30
2019-04-26T13:02:04.984Z,1.10
2019-04-26T13:03:04.344Z,1.20
2019-04-26T13:04:11.539Z,1.20
2019-04-26T13:05:20.280Z,1.13
2019-04-26T13:06:32.004Z,1.20
2019-04-26T13:07:39.075Z,1.20
2019-04-26T13:08:51.405Z,1.20
2019-04-26T13:10:35.452Z,0.83
2019-04-26T13:12:00.594Z,1.00
2019-04-26T13:13:21.863Z,0.93
2019-04-26T13:14:56.980Z,1.10
2019-04-26T13:16:26.526Z,1.13
2019-04-26T13:17:47.235Z,1.20
2019-04-26T13:18:54.479Z,1.00
2019-04-26T13:20:01.762Z,1.27
2019-04-26T13:21:10.383Z,1.20
2019-04-26T13:22:17.624Z,1.37
2019-04-26T13:23:25.390Z,0.97
2019-04-26T13:24:35.525Z,1.10
2019-04-26T13:25:42.784Z,1.03
2019-04-26T13:26:50.215Z,1.23
2019-04-26T13:27:57.611Z,1.13
2019-04-26T13:29:04.927Z,1.03
2019-04-26T13:30:13.818Z,1.10
2019-04-26T13:31:21.062Z,1.27
2019-04-26T13:32:28.273Z,1.20
2019-04-26T13:33:35.545Z,0.80
2019-04-26T13:34:42.783Z,1.30
2019-04-26T13:36:02.758Z,1.30
2019-04-26T13:37:03.004Z,1.40
2019-04-26T13:38:11.407Z,1.10
2019-04-26T13:39:22.365Z,1.17
2019-04-26T13:40:29.511Z,1.10
2019-04-26T13:41:38.714Z,1.07
2019-04-26T13:42:47.382Z,1.20
2019-04-26T13:43:57.171Z,1.00
2019-04-26T13:45:15.767Z,1.00
2019-04-26T13:46:43.441Z,1.17
2019-04-26T13:48:12.530Z,0.90
2019-04-26T13:49:32.279Z,1.10
2019-04-26T13:50:50.310Z,1.40
2019-04-26T13:51:57.790Z,1.50
2019-04-26T13:53:05.028Z,1.30
2019-04-26T13:54:12.274Z,1.27
2019-04-26T13:55:19.467Z,1.37
2019-04-26T13:56:26.797Z,1.23
2019-04-26T13:57:34.009Z,1.50
2019-04-26T13:58:41.249Z,1.70
2019-04-26T13:59:48.572Z,1.63
2019-04-26T14:00:56.115Z,1.60
2019-04-26T14:02:11.500Z,1.70
2019-04-26T14:03:12.905Z,1.50
2019-04-26T14:04:21.372Z,1.43
2019-04-26T14:05:28.612Z,1.70
2019-04-26T14:06:35.817Z,1.70
2019-04-26T14:07:43.035Z,1.50
2019-04-26T14:08:53.672Z,1.17
2019-04-26T14:09:59.293Z,1.37
2019-04-26T14:11:07.175Z,1.73
2019-04-26T14:12:18.544Z,1.23
2019-04-26T14:13:25.050Z,1.30
2019-04-26T14:14:34.222Z,1.27
2019-04-26T14:15:43.643Z,1.37
2019-04-26T14:16:52.066Z,1.30
2019-04-26T14:18:04.248Z,1.20
2019-04-26T14:19:14.793Z,1.20
2019-04-26T14:20:19.182Z,1.40
2019-04-26T14:21:29.309Z,1.43
2019-04-26T14:22:42.450Z,1.23
2019-04-26T14:24:14.804Z,1.17
2019-04-26T14:25:26.988Z,1.10
2019-04-26T14:26:41.744Z,1.00
2019-04-26T14:27:51.693Z,1.10
2019-04-26T14:28:59.888Z,1.10
2019-04-26T14:30:09.423Z,1.50
2019-04-26T14:31:18.197Z,1.20
2019-04-26T14:32:25.632Z,1.20
2019-04-26T14:33:33.396Z,1.33
2019-04-26T14:34:41.974Z,1.10
2019-04-26T14:35:50.615Z,1.00
2019-04-26T14:37:06.352Z,1.40
2019-04-26T14:38:08.162Z,1.23
2019-04-26T14:39:19.540Z,1.40
2019-04-26T14:40:24.410Z,1.57
2019-04-26T14:41:31.698Z,1.23
2019-04-26T14:42:46.006Z,1.37
2019-04-26T14:43:48.131Z,1.27
2019-04-26T14:44:55.373Z,1.30
2019-04-26T14:46:02.634Z,1.30
2019-04-26T14:47:14.715Z,1.10
2019-04-26T14:48:20.862Z,1.00
2019-04-26T14:49:38.463Z,1.30
2019-04-26T14:50:36.874Z,1.10
2019-04-26T14:51:46.981Z,1.00
2019-04-26T14:52:53.021Z,1.30
2019-04-26T14:54:00.295Z,1.10
2019-04-26T14:55:07.688Z,1.50
2019-04-26T14:56:14.985Z,1.00
2019-04-26T14:57:29.322Z,1.07
2019-04-26T14:58:33.598Z,0.90
2019-04-26T14:59:57.621Z,1.20
2019-04-26T15:01:05.478Z,0.90
2019-04-26T15:02:25.396Z,0.80
2019-04-26T15:03:39.766Z,1.00
2019-04-26T15:05:12.253Z,1.10
2019-04-26T15:06:25.884Z,0.80
2019-04-26T15:07:35.051Z,1.20
2019-04-26T15:08:45.240Z,0.97
2019-04-26T15:09:52.891Z,1.00
2019-04-26T15:11:01.333Z,1.10
2019-04-26T15:12:14.100Z,1.00
2019-04-26T15:13:20.857Z,0.97
2019-04-26T15:14:27.116Z,0.83
2019-04-26T15:15:34.747Z,1.10
2019-04-26T15:16:44.982Z,1.23
2019-04-26T15:17:55.059Z,1.00
2019-04-26T15:19:00.031Z,1.07
2019-04-26T15:20:07.944Z,1.00
2019-04-26T15:21:16.374Z,1.00
2019-04-26T15:22:24.429Z,1.30
2019-04-26T15:23:32.983Z,1.07
2019-04-26T15:24:42.076Z,1.00
2019-04-26T15:25:49.868Z,0.80
2019-04-26T15:27:01.945Z,0.90
2019-04-26T15:28:11.969Z,0.83
2019-04-26T15:29:16.359Z,1.03
2019-04-26T15:30:23.903Z,1.00
2019-04-26T15:31:32.992Z,0.70
2019-04-26T15:32:40.407Z,0.83
2019-04-26T15:33:48.891Z,0.97
2019-04-26T15:34:58.602Z,1.00
2019-04-26T15:36:06.468Z,1.23
2019-04-26T15:37:16.073Z,1.13
2019-04-26T15:38:23.845Z,0.97
2019-04-26T15:39:58.316Z,1.00
2019-04-26T15:41:16.961Z,0.80
2019-04-26T15:42:36.157Z,0.90
2019-04-26T15:43:56.958Z,0.80
2019-04-26T15:45:25.179Z,0.80
2019-04-26T15:46:59.647Z,1.00
2019-04-26T15:48:20.147Z,0.90
2019-04-26T15:49:44.431Z,0.80
2019-04-26T15:50:53.546Z,0.80
2019-04-26T15:52:00.841Z,1.00
2019-04-26T15:53:12.833Z,0.90
2019-04-26T15:54:17.894Z,0.80
2019-04-26T15:55:26.067Z,0.83
2019-04-26T15:56:33.277Z,1.17
2019-04-26T15:57:40.503Z,0.70
2019-04-26T15:58:49.130Z,0.83
2019-04-26T15:59:58.042Z,1.00
2019-04-26T16:01:10.813Z,0.83
2019-04-26T16:02:18.459Z,0.90
2019-04-26T16:03:24.765Z,0.80
2019-04-26T16:04:32.475Z,0.90
2019-04-26T16:05:39.836Z,0.80
2019-04-26T16:06:47.133Z,0.77
2019-04-26T16:07:57.388Z,0.80
2019-04-26T16:09:03.284Z,0.80
2019-04-26T16:10:12.359Z,0.87
2019-04-26T16:11:19.700Z,0.87
2019-04-26T16:12:27.310Z,1.03
2019-04-26T16:13:34.570Z,1.10
2019-04-26T16:14:42.277Z,1.00
2019-04-26T16:15:49.774Z,0.90
2019-04-26T16:16:58.392Z,1.27
2019-04-26T16:18:06.071Z,1.23
2019-04-26T16:19:13.283Z,0.90
2019-04-26T16:20:22.039Z,1.00
2019-04-26T16:21:29.597Z,0.97
2019-04-26T16:22:36.804Z,1.23
2019-04-26T16:23:51.113Z,1.20
2019-04-26T16:24:53.189Z,1.30
2019-04-26T16:26:00.498Z,1.30
2019-04-26T16:27:07.847Z,1.20
2019-04-26T16:28:33.322Z,1.10
2019-04-26T16:30:08.470Z,1.50
2019-04-26T16:31:34.720Z,1.70
2019-04-26T16:33:03.879Z,1.20
2019-04-26T16:34:14.449Z,1.50
2019-04-26T16:35:27.919Z,1.40
2019-04-26T16:36:32.211Z,1.30
2019-04-26T16:37:39.503Z,1.17
2019-04-26T16:38:48.559Z,1.30
2019-04-26T16:39:55.705Z,1.10
2019-04-26T16:41:03.498Z,1.20
2019-04-26T16:42:13.828Z,1.27
2019-04-26T16:43:34.821Z,1.00
2019-04-26T16:44:31.331Z,1.10
2019-04-26T16:45:41.256Z,1.10
2019-04-26T16:46:46.614Z,0.97
2019-04-26T16:47:53.854Z,0.90
2019-04-26T16:49:02.360Z,1.03
2019-04-26T16:50:15.025Z,0.93
2019-04-26T16:51:19.225Z,1.10
2019-04-26T16:52:26.513Z,1.10
2019-04-26T16:53:45.888Z,1.00
2019-04-26T16:54:42.691Z,1.10
2019-04-26T16:55:52.550Z,1.10
2019-04-26T16:57:05.124Z,1.20
2019-04-26T16:58:07.802Z,1.20
2019-04-26T16:59:22.380Z,1.30
2019-04-26T17:00:47.179Z,1.40
2019-04-26T17:01:33.469Z,1.43
2019-04-26T17:02:40.832Z,1.40
2019-04-26T17:03:48.421Z,1.40
2019-04-26T17:04:55.770Z,1.40
2019-04-26T17:06:06.761Z,1.37
2019-04-26T17:07:13.868Z,1.40
2019-04-26T17:08:23.127Z,1.70
2019-04-26T17:09:52.311Z,1.80
2019-04-26T17:10:40.069Z,1.40
2019-04-26T17:11:47.311Z,1.30
2019-04-26T17:12:54.555Z,1.43
2019-04-26T17:14:04.851Z,1.43
2019-04-26T17:15:10.849Z,1.60
2019-04-26T17:16:18.152Z,1.40
2019-04-26T17:17:25.393Z,1.50
2019-04-26T17:18:32.649Z,1.40
2019-04-26T17:19:39.858Z,1.60
2019-04-26T17:20:48.242Z,1.90
2019-04-26T17:22:03.917Z,1.93
2019-04-26T17:23:36.179Z,2.00
2019-04-26T17:25:12.653Z,1.50
2019-04-26T17:26:29.227Z,1.43
2019-04-26T17:27:36.291Z,1.33